»·PEaware :: SKW5540 KSLC-KDEN

SKW5540 :: KSLC-KDEN

FLIGHT INFORMATION

Flight Status: Arrived
Operator:
SkyWest Airlines
More flights by this operator :: More flights under this callsign
Pilot: John D. (29395)
Aircraft: CANADAIR CL-600 CRJ-200
(CRJ2)
More flights by this aircraft type
Origin: KSLC Salt Lake City Intl
United States
Destination: KDEN Denver Intl
United States
More flights between these airports :: More routes between these airports
Route: RUGGD1 PERTY KAMPR LONGZ1
File this flight plan on PilotEdge
Remarks: RMK / SIMBRIEF
Altitude:
(Current/Filed)
33,000ft
Speed:
(Current/Filed)
472kts
Departed: 22-May-20 10:07 PM
Arrived: 22-May-20 11:04 PM
Distance/Time
Traveled:
339nm/0:57
Distance/Time
To Go:
Arrived

Flight Plot

Page will automatically refresh every two minutes.


Map Options




Map Legend


Flown Route
Filed Route
Departure Airport
Arrival Airport
Navaid (VOR, NDB)
Fix

Horizontal Profiles

Position Reports

Time Latitude Longitude Heading Altitude Ground
Speed
22-May-20 21:29 40.788195 -111.977960 267 4232ft 0kts
22-May-20 21:31 40.788195 -111.977960 267 4232ft 0kts
22-May-20 21:32 40.788195 -111.977960 267 4232ft 0kts
22-May-20 21:32 40.788195 -111.977960 267 4232ft 0kts
22-May-20 21:34 40.788195 -111.977960 267 4232ft 0kts
22-May-20 21:34 40.788195 -111.977960 267 4232ft 0kts
22-May-20 21:35 40.788195 -111.977960 267 4232ft 0kts
22-May-20 21:36 40.788195 -111.977960 267 4232ft 0kts
22-May-20 21:37 40.788195 -111.977960 267 4232ft 0kts
22-May-20 21:38 40.788195 -111.977960 267 4232ft 0kts
22-May-20 21:39 40.788195 -111.977960 267 4232ft 0kts
22-May-20 21:40 40.788195 -111.977960 267 4232ft 0kts
22-May-20 21:41 40.788195 -111.977960 267 4232ft 0kts
22-May-20 21:42 40.788195 -111.977960 267 4232ft 0kts
22-May-20 21:43 40.788195 -111.977960 267 4232ft 0kts
22-May-20 21:44 40.788195 -111.977960 267 4232ft 0kts
22-May-20 21:45 40.788195 -111.977960 267 4232ft 0kts
22-May-20 21:46 40.788195 -111.977960 267 4232ft 0kts
22-May-20 21:47 40.788195 -111.977960 267 4232ft 0kts
22-May-20 21:48 40.788195 -111.977960 267 4232ft 0kts
22-May-20 21:49 40.788194 -111.977964 267 4232ft 0kts
22-May-20 21:50 40.788146 -111.977485 291 4232ft 2kts
22-May-20 21:51 40.787763 -111.976913 332 4232ft 2kts
22-May-20 21:52 40.787437 -111.976794 355 4232ft 0kts
22-May-20 21:53 40.787437 -111.976794 355 4232ft 0kts
22-May-20 21:54 40.787437 -111.976794 355 4232ft 0kts
22-May-20 21:55 40.787437 -111.976794 355 4232ft 0kts
22-May-20 21:56 40.787441 -111.977434 183 4232ft 2kts
22-May-20 21:57 40.787416 -111.977436 184 4232ft 0kts
22-May-20 21:58 40.787416 -111.977436 184 4232ft 0kts
22-May-20 21:59 40.786254 -111.977028 111 4232ft 2kts
22-May-20 22:00 40.784555 -111.976458 174 4232ft 11kts
22-May-20 22:01 40.781370 -111.976056 174 4232ft 11kts
22-May-20 22:02 40.778596 -111.975736 173 4232ft 8kts
22-May-20 22:03 40.776364 -111.975497 175 4232ft 8kts
22-May-20 22:04 40.774553 -111.974628 116 4232ft 3kts
22-May-20 22:05 40.774749 -111.973610 49 4232ft 5kts
22-May-20 22:06 40.785950 -111.974378 354 4232ft 132kts
22-May-20 22:07 40.824174 -111.996361 295 6811ft 172kts
22-May-20 22:08 40.842170 -112.064155 291 9774ft 205kts
22-May-20 22:09 40.872974 -112.137410 317 12099ft 279kts
22-May-20 22:10 40.951599 -112.147118 34 15272ft 331kts
22-May-20 22:11 41.019613 -112.041607 42 17095ft 416kts
22-May-20 22:12 41.083083 -111.917067 77 20696ft 422kts
22-May-20 22:13 41.055391 -111.777348 116 23829ft 415kts
22-May-20 22:14 41.034168 -111.620412 105 26705ft 444kts
22-May-20 22:15 41.012832 -111.455292 104 29295ft 465kts
22-May-20 22:16 40.990188 -111.282330 105 31560ft 485kts
22-May-20 22:17 40.966401 -111.102776 105 33050ft 500kts
22-May-20 22:18 40.941843 -110.919713 105 33014ft 505kts
22-May-20 22:19 40.916929 -110.736331 105 33006ft 506kts
22-May-20 22:20 40.891718 -110.553145 105 33008ft 508kts
22-May-20 22:21 40.866111 -110.369316 105 33000ft 509kts
22-May-20 22:22 40.840104 -110.184770 106 32992ft 510kts
22-May-20 22:23 40.813841 -110.000705 106 32928ft 512kts
22-May-20 22:24 40.787219 -109.816352 106 32872ft 512kts
22-May-20 22:25 40.760285 -109.631949 106 32862ft 511kts
22-May-20 22:26 40.733130 -109.448254 106 32853ft 509kts
22-May-20 22:27 40.705798 -109.265441 106 32835ft 508kts
22-May-20 22:28 40.678247 -109.083214 106 32844ft 506kts
22-May-20 22:29 40.663297 -108.897832 99 32879ft 509kts
22-May-20 22:30 40.651228 -108.712603 99 32878ft 509kts
22-May-20 22:31 40.638787 -108.526366 99 32876ft 508kts
22-May-20 22:32 40.626154 -108.341939 99 32876ft 508kts
22-May-20 22:33 40.613156 -108.156197 99 32878ft 507kts
22-May-20 22:34 40.599870 -107.971312 99 32900ft 506kts
22-May-20 22:35 40.586392 -107.786953 99 32901ft 506kts
22-May-20 22:36 40.572649 -107.602676 99 32903ft 506kts
22-May-20 22:37 40.558694 -107.418641 99 32905ft 509kts
22-May-20 22:38 40.544296 -107.232598 99 32896ft 510kts
22-May-20 22:39 40.529689 -107.047801 99 32898ft 508kts
22-May-20 22:40 40.514815 -106.863334 99 32951ft 506kts
22-May-20 22:41 40.499708 -106.679763 99 32983ft 506kts
22-May-20 22:42 40.484070 -106.495446 99 32984ft 506kts
22-May-20 22:43 40.467553 -106.311091 100 32979ft 507kts
22-May-20 22:44 40.451097 -106.129051 99 31504ft 493kts
22-May-20 22:45 40.435795 -105.954629 99 28658ft 471kts
22-May-20 22:46 40.413158 -105.790968 105 25756ft 445kts
22-May-20 22:47 40.388682 -105.636603 105 22858ft 423kts
22-May-20 22:48 40.365458 -105.491500 105 20866ft 384kts
22-May-20 22:49 40.345169 -105.364370 103 19144ft 346kts
22-May-20 22:50 40.328424 -105.241475 104 17005ft 329kts
22-May-20 22:51 40.312403 -105.123781 103 13906ft 318kts
22-May-20 22:52 40.297509 -105.014873 104 12998ft 276kts
22-May-20 22:53 40.284052 -104.917427 104 12820ft 277kts
22-May-20 22:54 40.270346 -104.818213 104 11532ft 275kts
22-May-20 22:55 40.248394 -104.727687 120 10941ft 256kts
22-May-20 22:56 40.194569 -104.686470 176 10017ft 224kts
22-May-20 22:57 40.131237 -104.684026 179 9992ft 223kts
22-May-20 22:58 40.069135 -104.684860 177 8853ft 223kts
22-May-20 22:59 40.014917 -104.685456 177 7817ft 145kts
22-May-20 23:00 39.973784 -104.685903 177 6974ft 146kts
22-May-20 23:01 39.935344 -104.686321 178 6225ft 141kts
22-May-20 23:02 39.895015 -104.686932 177 5462ft 143kts
22-May-20 23:03 39.873891 -104.686770 166 5439ft 14kts
22-May-20 23:04 39.873217 -104.686457 156 5439ft 3kts
22-May-20 23:05 39.871448 -104.685194 153 5439ft 7kts
22-May-20 23:06 39.869009 -104.685000 180 5439ft 11kts
22-May-20 23:07 39.865785 -104.685024 180 5439ft 11kts
22-May-20 23:08 39.862730 -104.685068 180 5439ft 10kts
22-May-20 23:09 39.859827 -104.685102 180 5439ft 10kts
22-May-20 23:10 39.857060 -104.685008 143 5439ft 9kts
22-May-20 23:11 39.856813 -104.681916 107 5439ft 7kts
22-May-20 23:12 39.856700 -104.678878 90 5439ft 10kts
22-May-20 23:14 39.856645 -104.674203 92 5439ft 15kts
22-May-20 23:15 39.857183 -104.669594 18 5439ft 10kts
22-May-20 23:16 39.858032 -104.669548 0 5439ft 0kts
22-May-20 23:17 39.858032 -104.669547 0 5439ft 0kts
22-May-20 23:18 39.858032 -104.669548 0 5439ft 0kts
22-May-20 23:19 39.858032 -104.669548 0 5439ft 0kts

Navigation Log

Ident Type
Flight plan parsing failed, navigation log unavailable